sensor_id;sensor_type;location;lat;lon;timestamp;pressure;altitude;pressure_sealevel;temperature;humidity
42003;BME280;27693;50.506;30.832;2023-02-11T00:00:54;100996.62;;;-0.30;73.87
42003;BME280;27693;50.506;30.832;2023-02-11T00:01:57;100998.39;;;-0.26;73.75
42003;BME280;27693;50.506;30.832;2023-02-11T00:03:01;101003.58;;;-0.23;73.66
42003;BME280;27693;50.506;30.832;2023-02-11T00:04:04;100999.36;;;-0.21;73.88
42003;BME280;27693;50.506;30.832;2023-02-11T00:05:07;101003.69;;;-0.17;73.39
42003;BME280;27693;50.506;30.832;2023-02-11T00:06:11;100999.37;;;-0.19;73.45
42003;BME280;27693;50.506;30.832;2023-02-11T00:07:13;100998.36;;;-0.27;73.24
42003;BME280;27693;50.506;30.832;2023-02-11T00:08:16;101000.11;;;-0.25;73.82
42003;BME280;27693;50.506;30.832;2023-02-11T00:09:18;101001.71;;;-0.31;73.63
42003;BME280;27693;50.506;30.832;2023-02-11T00:10:20;101004.42;;;-0.22;74.44
42003;BME280;27693;50.506;30.832;2023-02-11T00:11:24;101005.36;;;-0.17;73.98
42003;BME280;27693;50.506;30.832;2023-02-11T00:12:29;101001.84;;;-0.24;73.00
42003;BME280;27693;50.506;30.832;2023-02-11T00:13:32;100998.57;;;-0.17;73.43
42003;BME280;27693;50.506;30.832;2023-02-11T00:14:37;100999.52;;;-0.11;73.79
42003;BME280;27693;50.506;30.832;2023-02-11T00:15:39;101005.56;;;-0.06;73.89
42003;BME280;27693;50.506;30.832;2023-02-11T00:16:48;101004.73;;;-0.05;74.07
42003;BME280;27693;50.506;30.832;2023-02-11T00:17:52;101004.92;;;0.04;73.69
42003;BME280;27693;50.506;30.832;2023-02-11T00:18:57;100999.58;;;-0.08;73.37
42003;BME280;27693;50.506;30.832;2023-02-11T00:20:00;101000.45;;;-0.06;73.80
42003;BME280;27693;50.506;30.832;2023-02-11T00:21:12;101004.59;;;-0.14;73.03
42003;BME280;27693;50.506;30.832;2023-02-11T00:22:10;101003.73;;;-0.13;73.84
42003;BME280;27693;50.506;30.832;2023-02-11T00:23:13;101008.09;;;-0.09;74.17
42003;BME280;27693;50.506;30.832;2023-02-11T00:24:15;101010.64;;;-0.09;73.59
42003;BME280;27693;50.506;30.832;2023-02-11T00:25:17;101003.80;;;-0.10;73.52
42003;BME280;27693;50.506;30.832;2023-02-11T00:26:25;101003.91;;;-0.04;73.86
42003;BME280;27693;50.506;30.832;2023-02-11T00:27:28;101007.37;;;-0.02;73.73
42003;BME280;27693;50.506;30.832;2023-02-11T00:28:33;101009.09;;;-0.01;73.68
42003;BME280;27693;50.506;30.832;2023-02-11T00:29:38;101009.95;;;-0.01;73.35
42003;BME280;27693;50.506;30.832;2023-02-11T00:30:40;101009.95;;;-0.01;73.55
42003;BME280;27693;50.506;30.832;2023-02-11T00:31:43;101010.69;;;-0.06;73.19
42003;BME280;27693;50.506;30.832;2023-02-11T00:32:45;101013.44;;;0.05;74.01
42003;BME280;27693;50.506;30.832;2023-02-11T00:33:47;101013.44;;;0.05;73.48
42003;BME280;27693;50.506;30.832;2023-02-11T00:34:51;101013.44;;;0.05;73.48
42003;BME280;27693;50.506;30.832;2023-02-11T00:35:54;101009.75;;;-0.11;73.04
42003;BME280;27693;50.506;30.832;2023-02-11T00:36:57;101004.64;;;-0.10;73.37
42003;BME280;27693;50.506;30.832;2023-02-11T00:38:00;101013.24;;;-0.06;73.96
42003;BME280;27693;50.506;30.832;2023-02-11T00:39:02;101004.09;;;0.05;74.34
42003;BME280;27693;50.506;30.832;2023-02-11T00:40:06;101012.59;;;0.04;73.28
42003;BME280;27693;50.506;30.832;2023-02-11T00:41:08;100998.80;;;-0.04;73.44
42003;BME280;27693;50.506;30.832;2023-02-11T00:42:13;101000.52;;;-0.03;73.71
42003;BME280;27693;50.506;30.832;2023-02-11T00:43:16;100995.30;;;-0.09;73.71
42003;BME280;27693;50.506;30.832;2023-02-11T00:44:18;101004.64;;;-0.10;73.53
42003;BME280;27693;50.506;30.832;2023-02-11T00:45:22;100996.00;;;-0.18;73.25
42003;BME280;27693;50.506;30.832;2023-02-11T00:46:25;101002.98;;;-0.08;74.00
42003;BME280;27693;50.506;30.832;2023-02-11T00:47:27;100997.89;;;-0.06;73.81
42003;BME280;27693;50.506;30.832;2023-02-11T00:48:30;101000.45;;;-0.06;74.14
42003;BME280;27693;50.506;30.832;2023-02-11T00:49:34;100996.20;;;-0.07;74.25
42003;BME280;27693;50.506;30.832;2023-02-11T00:50:38;100992.76;;;-0.08;74.25
42003;BME280;27693;50.506;30.832;2023-02-11T00:51:40;100994.58;;;-0.02;74.56
42003;BME280;27693;50.506;30.832;2023-02-11T00:52:42;100993.67;;;-0.04;74.01
42003;BME280;27693;50.506;30.832;2023-02-11T00:53:44;100996.25;;;-0.03;74.04
42003;BME280;27693;50.506;30.832;2023-02-11T00:54:47;100992.66;;;-0.12;73.48
42003;BME280;27693;50.506;30.832;2023-02-11T00:55:49;100983.31;;;-0.12;74.11
42003;BME280;27693;50.506;30.832;2023-02-11T00:56:52;100987.55;;;-0.12;73.97
42003;BME280;27693;50.506;30.832;2023-02-11T00:57:54;100990.11;;;-0.12;74.40
42003;BME280;27693;50.506;30.832;2023-02-11T00:58:57;100985.87;;;-0.12;73.96
42003;BME280;27693;50.506;30.832;2023-02-11T00:59:59;100981.67;;;-0.08;73.92
42003;BME280;27693;50.506;30.832;2023-02-11T01:01:03;100982.41;;;-0.14;73.46
42003;BME280;27693;50.506;30.832;2023-02-11T01:02:06;100989.28;;;-0.11;73.94
42003;BME280;27693;50.506;30.832;2023-02-11T01:03:10;100980.59;;;-0.20;73.84
42003;BME280;27693;50.506;30.832;2023-02-11T01:04:15;100976.56;;;-0.08;74.00
42003;BME280;27693;50.506;30.832;2023-02-11T01:05:19;100977.49;;;-0.03;73.87
42003;BME280;27693;50.506;30.832;2023-02-11T01:06:23;100978.34;;;-0.03;74.48
42003;BME280;27693;50.506;30.832;2023-02-11T01:07:27;100981.71;;;-0.05;74.11
42003;BME280;27693;50.506;30.832;2023-02-11T01:08:30;100979.22;;;-0.02;73.97
42003;BME280;27693;50.506;30.832;2023-02-11T01:09:32;100982.55;;;-0.06;74.00
42003;BME280;27693;50.506;30.832;2023-02-11T01:10:35;100987.66;;;-0.06;74.17
42003;BME280;27693;50.506;30.832;2023-02-11T01:11:37;100987.75;;;-0.02;74.42
42003;BME280;27693;50.506;30.832;2023-02-11T01:12:39;100982.63;;;-0.02;74.45
42003;BME280;27693;50.506;30.832;2023-02-11T01:13:42;100984.12;;;-0.14;73.56
42003;BME280;27693;50.506;30.832;2023-02-11T01:14:45;100990.09;;;-0.14;74.26
42003;BME280;27693;50.506;30.832;2023-02-11T01:15:49;100980.75;;;-0.12;74.45
42003;BME280;27693;50.506;30.832;2023-02-11T01:16:52;100989.30;;;-0.10;74.46
42003;BME280;27693;50.506;30.832;2023-02-11T01:17:55;100984.99;;;-0.12;74.07
42003;BME280;27693;50.506;30.832;2023-02-11T01:18:58;100989.19;;;-0.16;74.27
42003;BME280;27693;50.506;30.832;2023-02-11T01:20:05;100989.91;;;-0.23;74.11
42003;BME280;27693;50.506;30.832;2023-02-11T01:21:07;100979.66;;;-0.25;74.13
42003;BME280;27693;50.506;30.832;2023-02-11T01:22:10;100982.28;;;-0.22;74.68
42003;BME280;27693;50.506;30.832;2023-02-11T01:23:12;100978.03;;;-0.20;74.70
42003;BME280;27693;50.506;30.832;2023-02-11T01:24:14;100982.30;;;-0.20;74.57
42003;BME280;27693;50.506;30.832;2023-02-11T01:25:18;100983.11;;;-0.23;74.43
42003;BME280;27693;50.506;30.832;2023-02-11T01:26:22;100984.95;;;-0.15;75.04
42003;BME280;27693;50.506;30.832;2023-02-11T01:27:24;100987.55;;;-0.12;74.79
42003;BME280;27693;50.506;30.832;2023-02-11T01:28:28;100991.84;;;-0.11;74.96
42003;BME280;27693;50.506;30.832;2023-02-11T01:29:33;100975.77;;;-0.04;74.99
42003;BME280;27693;50.506;30.832;2023-02-11T01:30:36;100983.41;;;-0.07;74.62
42003;BME280;27693;50.506;30.832;2023-02-11T01:31:38;100985.77;;;-0.18;74.40
42003;BME280;27693;50.506;30.832;2023-02-11T01:32:41;100989.17;;;-0.18;74.95
42003;BME280;27693;50.506;30.832;2023-02-11T01:33:43;100980.59;;;-0.20;74.85
42003;BME280;27693;50.506;30.832;2023-02-11T01:34:45;100983.33;;;-0.10;75.60
42003;BME280;27693;50.506;30.832;2023-02-11T01:35:48;100983.42;;;-0.06;75.55
42003;BME280;27693;50.506;30.832;2023-02-11T01:37:00;100985.87;;;-0.12;75.20
42003;BME280;27693;50.506;30.832;2023-02-11T01:37:59;100989.48;;;-0.01;75.73
42003;BME280;27693;50.506;30.832;2023-02-11T01:39:02;100987.80;;;0.00;75.29
42003;BME280;27693;50.506;30.832;2023-02-11T01:40:09;100992.95;;;0.03;74.85
42003;BME280;27693;50.506;30.832;2023-02-11T01:41:12;100986.72;;;-0.11;73.80
42003;BME280;27693;50.506;30.832;2023-02-11T01:42:18;100983.27;;;-0.13;74.10
42003;BME280;27693;50.506;30.832;2023-02-11T01:43:22;100990.09;;;-0.14;73.90
42003;BME280;27693;50.506;30.832;2023-02-11T01:44:29;100986.83;;;-0.05;74.37
42003;BME280;27693;50.506;30.832;2023-02-11T01:46:52;100984.99;;;-0.12;73.84
42003;BME280;27693;50.506;30.832;2023-02-11T01:47:55;100986.68;;;-0.14;74.31
42003;BME280;27693;50.506;30.832;2023-02-11T01:49:06;100988.23;;;-0.23;74.31
42003;BME280;27693;50.506;30.832;2023-02-11T01:50:10;100983.16;;;-0.20;74.93
42003;BME280;27693;50.506;30.832;2023-02-11T01:51:20;100979.03;;;-0.13;75.33
42003;BME280;27693;50.506;30.832;2023-02-11T01:52:28;100979.98;;;-0.06;75.43
42003;BME280;27693;50.506;30.832;2023-02-11T01:53:31;100979.34;;;0.06;76.11
42003;BME280;27693;50.506;30.832;2023-02-11T01:54:57;100976.94;;;0.13;75.67
42003;BME280;27693;50.506;30.832;2023-02-11T01:56:19;100970.33;;;0.28;75.51
42003;BME280;27693;50.506;30.832;2023-02-11T01:57:44;100969.40;;;0.23;74.48
42003;BME280;27693;50.506;30.832;2023-02-11T01:58:48;100960.06;;;0.25;74.49
42003;BME280;27693;50.506;30.832;2023-02-11T02:01:18;100965.08;;;0.19;74.19
42003;BME280;27693;50.506;30.832;2023-02-11T02:02:25;100967.66;;;0.20;73.87
42003;BME280;27693;50.506;30.832;2023-02-11T02:03:27;100961.80;;;0.27;74.67
42003;BME280;27693;50.506;30.832;2023-02-11T02:04:35;100971.29;;;0.33;75.05
42003;BME280;27693;50.506;30.832;2023-02-11T02:05:48;100964.38;;;0.29;74.31
42003;BME280;27693;50.506;30.832;2023-02-11T02:06:55;100964.34;;;0.26;74.13
42003;BME280;27693;50.506;30.832;2023-02-11T02:08:12;100967.03;;;0.35;74.65
42003;BME280;27693;50.506;30.832;2023-02-11T02:09:26;100965.47;;;0.43;74.77
42003;BME280;27693;50.506;30.832;2023-02-11T02:10:30;100963.72;;;0.41;73.61
42003;BME280;27693;50.506;30.832;2023-02-11T02:11:36;100956.89;;;0.41;73.26
42003;BME280;27693;50.506;30.832;2023-02-11T02:12:38;100961.88;;;0.32;72.34
42003;BME280;27693;50.506;30.832;2023-02-11T02:13:42;100964.44;;;0.32;72.20
42003;BME280;27693;50.506;30.832;2023-02-11T02:14:44;100968.41;;;0.14;71.67
42003;BME280;27693;50.506;30.832;2023-02-11T02:15:54;100959.86;;;0.12;72.06
42003;BME280;27693;50.506;30.832;2023-02-11T02:16:58;100951.34;;;0.13;72.55
42003;BME280;27693;50.506;30.832;2023-02-11T02:18:05;100955.69;;;0.19;72.89
42003;BME280;27693;50.506;30.832;2023-02-11T02:26:18;100952.39;;;0.26;73.98
42003;BME280;27693;50.506;30.832;2023-02-11T02:31:46;100960.81;;;0.19;74.07
42003;BME280;27693;50.506;30.832;2023-02-11T02:34:00;100950.28;;;0.02;74.28
42003;BME280;27693;50.506;30.832;2023-02-11T02:36:36;100946.23;;;0.13;75.16
42003;BME280;27693;50.506;30.832;2023-02-11T02:39:04;100953.20;;;0.24;75.48
42003;BME280;27693;50.506;30.832;2023-02-11T02:40:05;100951.67;;;0.35;75.54
42003;BME280;27693;50.506;30.832;2023-02-11T02:41:10;100954.38;;;0.43;75.39
42003;BME280;27693;50.506;30.832;2023-02-11T02:42:13;100951.17;;;0.58;74.99
42003;BME280;27693;50.506;30.832;2023-02-11T02:43:17;100950.33;;;0.57;74.59
42003;BME280;27693;50.506;30.832;2023-02-11T02:44:21;100954.56;;;0.55;74.56
42003;BME280;27693;50.506;30.832;2023-02-11T02:45:24;100955.41;;;0.56;74.92
42003;BME280;27693;50.506;30.832;2023-02-11T02:46:30;100955.41;;;0.56;74.92
42003;BME280;27693;50.506;30.832;2023-02-11T02:47:32;100951.28;;;0.66;74.68
42003;BME280;27693;50.506;30.832;2023-02-11T02:48:34;100953.95;;;0.72;74.40
42003;BME280;27693;50.506;30.832;2023-02-11T02:49:36;100952.23;;;0.71;73.77
42003;BME280;27693;50.506;30.832;2023-02-11T02:50:39;100960.83;;;0.74;74.00
42003;BME280;27693;50.506;30.832;2023-02-11T02:57:50;100952.75;;;0.50;72.64
42003;BME280;27693;50.506;30.832;2023-02-11T03:00:40;100949.25;;;0.43;74.48
42003;BME280;27693;50.506;30.832;2023-02-11T03:04:28;100940.36;;;0.77;74.52
42003;BME280;27693;50.506;30.832;2023-02-11T03:08:29;100947.06;;;0.69;74.04
42003;BME280;27693;50.506;30.832;2023-02-11T03:09:38;100948.38;;;0.42;73.04
42003;BME280;27693;50.506;30.832;2023-02-11T03:10:43;100949.20;;;0.41;73.91
42003;BME280;27693;50.506;30.832;2023-02-11T03:11:47;100943.22;;;0.39;74.54
42003;BME280;27693;50.506;30.832;2023-02-11T03:12:50;100949.81;;;0.25;73.91
42003;BME280;27693;50.506;30.832;2023-02-11T03:13:55;100954.30;;;0.38;75.01
42003;BME280;27693;50.506;30.832;2023-02-11T03:14:58;100944.86;;;0.34;74.88
42003;BME280;27693;50.506;30.832;2023-02-11T03:16:08;100951.58;;;0.29;74.95
42003;BME280;27693;50.506;30.832;2023-02-11T03:17:13;100951.64;;;0.32;75.47
42003;BME280;27693;50.506;30.832;2023-02-11T03:18:18;100949.06;;;0.30;74.63
42003;BME280;27693;50.506;30.832;2023-02-11T03:19:24;100953.14;;;0.21;74.60
42003;BME280;27693;50.506;30.832;2023-02-11T03:20:28;100953.27;;;0.27;75.31
42003;BME280;27693;50.506;30.832;2023-02-11T03:21:32;100950.01;;;0.37;75.68
42003;BME280;27693;50.506;30.832;2023-02-11T03:22:46;100947.55;;;0.45;75.73
42003;BME280;27693;50.506;30.832;2023-02-11T03:23:56;100948.28;;;0.36;74.55
42003;BME280;27693;50.506;30.832;2023-02-11T03:25:00;100945.78;;;0.39;74.76
42003;BME280;27693;50.506;30.832;2023-02-11T03:26:30;100945.61;;;0.28;74.09
42003;BME280;27693;50.506;30.832;2023-02-11T03:29:16;100939.73;;;0.34;74.97
42003;BME280;27693;50.506;30.832;2023-02-11T03:30:35;100929.09;;;0.65;75.96
42003;BME280;27693;50.506;30.832;2023-02-11T03:33:13;100934.71;;;0.40;74.56
42003;BME280;27693;50.506;30.832;2023-02-11T03:36:00;100934.65;;;0.37;75.31
42003;BME280;27693;50.506;30.832;2023-02-11T03:39:36;100921.75;;;0.31;75.31
42003;BME280;27693;50.506;30.832;2023-02-11T03:40:41;100925.04;;;0.22;75.58
42003;BME280;27693;50.506;30.832;2023-02-11T03:41:48;100917.19;;;0.11;75.43
42003;BME280;27693;50.506;30.832;2023-02-11T03:42:58;100922.14;;;0.02;75.71
42003;BME280;27693;50.506;30.832;2023-02-11T03:44:03;100921.23;;;-0.02;75.91
42003;BME280;27693;50.506;30.832;2023-02-11T03:45:09;100922.14;;;0.02;76.71
42003;BME280;27693;50.506;30.832;2023-02-11T03:46:16;100923.84;;;0.00;76.08
42003;BME280;27693;50.506;30.832;2023-02-11T03:47:22;100922.02;;;-0.06;76.25
42003;BME280;27693;50.506;30.832;2023-02-11T03:48:31;100923.66;;;-0.09;76.50
42003;BME280;27693;50.506;30.832;2023-02-11T03:49:36;100916.92;;;-0.04;77.26
42003;BME280;27693;50.506;30.832;2023-02-11T03:50:41;100918.55;;;-0.09;76.73
42003;BME280;27693;50.506;30.832;2023-02-11T03:51:48;100911.80;;;-0.04;77.25
42003;BME280;27693;50.506;30.832;2023-02-11T03:52:53;100916.89;;;-0.07;76.59
42003;BME280;27693;50.506;30.832;2023-02-11T03:53:59;100910.08;;;-0.05;76.84
42003;BME280;27693;50.506;30.832;2023-02-11T03:55:08;100915.24;;;-0.04;76.92
42003;BME280;27693;50.506;30.832;2023-02-11T03:56:13;100907.42;;;-0.11;76.91
42003;BME280;27693;50.506;30.832;2023-02-11T03:57:15;100905.74;;;-0.11;77.09
42003;BME280;27693;50.506;30.832;2023-02-11T03:58:17;100899.84;;;-0.05;77.35
42003;BME280;27693;50.506;30.832;2023-02-11T03:59:20;100901.57;;;-0.04;77.36
42003;BME280;27693;50.506;30.832;2023-02-11T04:00:35;100893.06;;;-0.03;77.09
42003;BME280;27693;50.506;30.832;2023-02-11T04:01:38;100894.71;;;-0.07;76.95
42003;BME280;27693;50.506;30.832;2023-02-11T04:02:41;100891.44;;;0.02;77.45
42003;BME280;27693;50.506;30.832;2023-02-11T04:03:43;100889.87;;;0.10;77.64
42003;BME280;27693;50.506;30.832;2023-02-11T04:04:46;100892.41;;;0.09;76.84
42003;BME280;27693;50.506;30.832;2023-02-11T04:05:48;100890.69;;;0.08;76.97
42003;BME280;27693;50.506;30.832;2023-02-11T04:06:52;100890.67;;;0.06;77.02
42003;BME280;27693;50.506;30.832;2023-02-11T04:07:54;100882.11;;;0.06;77.32
42003;BME280;27693;50.506;30.832;2023-02-11T04:08:57;100892.42;;;0.10;77.31
42003;BME280;27693;50.506;30.832;2023-02-11T04:10:03;100888.11;;;0.06;76.66
42003;BME280;27693;50.506;30.832;2023-02-11T04:11:06;100887.15;;;0.01;76.50
42003;BME280;27693;50.506;30.832;2023-02-11T04:12:09;100884.50;;;-0.05;76.69
42003;BME280;27693;50.506;30.832;2023-02-11T04:13:11;100888.84;;;-0.01;76.80
42003;BME280;27693;50.506;30.832;2023-02-11T04:14:13;100876.88;;;-0.02;77.02
42003;BME280;27693;50.506;30.832;2023-02-11T04:15:16;100881.17;;;-0.01;77.13
42003;BME280;27693;50.506;30.832;2023-02-11T04:16:19;100878.52;;;-0.07;77.01
42003;BME280;27693;50.506;30.832;2023-02-11T04:17:21;100878.52;;;-0.07;77.01
42003;BME280;27693;50.506;30.832;2023-02-11T04:18:23;100883.66;;;-0.04;77.38
42003;BME280;27693;50.506;30.832;2023-02-11T04:19:25;100878.56;;;-0.03;77.18
42003;BME280;27693;50.506;30.832;2023-02-11T04:20:28;100881.07;;;-0.07;76.87
42003;BME280;27693;50.506;30.832;2023-02-11T04:21:30;100875.09;;;-0.06;77.07
42003;BME280;27693;50.506;30.832;2023-02-11T04:22:32;100879.14;;;-0.21;77.00
42003;BME280;27693;50.506;30.832;2023-02-11T04:23:34;100889.38;;;-0.21;77.24
42003;BME280;27693;50.506;30.832;2023-02-11T04:24:37;100874.88;;;-0.20;77.31
42003;BME280;27693;50.506;30.832;2023-02-11T04:25:41;100880.08;;;-0.15;77.37
42003;BME280;27693;50.506;30.832;2023-02-11T04:26:44;100885.22;;;-0.12;77.38
42003;BME280;27693;50.506;30.832;2023-02-11T04:27:46;100881.01;;;-0.10;76.97
42003;BME280;27693;50.506;30.832;2023-02-11T04:28:48;100879.34;;;-0.08;77.22
42003;BME280;27693;50.506;30.832;2023-02-11T04:29:50;100879.34;;;-0.08;77.22
42003;BME280;27693;50.506;30.832;2023-02-11T04:30:54;100872.50;;;-0.09;76.81
42003;BME280;27693;50.506;30.832;2023-02-11T04:31:57;100878.53;;;-0.06;77.14
42003;BME280;27693;50.506;30.832;2023-02-11T04:32:59;100876.08;;;0.02;76.97
42003;BME280;27693;50.506;30.832;2023-02-11T04:34:01;100871.80;;;0.01;76.79
42003;BME280;27693;50.506;30.832;2023-02-11T04:35:05;100878.72;;;0.07;76.94
42003;BME280;27693;50.506;30.832;2023-02-11T04:36:09;100868.41;;;0.02;76.46
42003;BME280;27693;50.506;30.832;2023-02-11T04:37:11;100876.05;;;-0.01;76.17
42003;BME280;27693;50.506;30.832;2023-02-11T04:38:15;100877.70;;;-0.05;76.24
42003;BME280;27693;50.506;30.832;2023-02-11T04:39:17;100875.89;;;-0.10;76.73
42003;BME280;27693;50.506;30.832;2023-02-11T04:40:19;100872.34;;;-0.19;76.46
42003;BME280;27693;50.506;30.832;2023-02-11T04:41:21;100874.81;;;-0.23;76.51
42003;BME280;27693;50.506;30.832;2023-02-11T04:42:24;100875.69;;;-0.23;76.75
42003;BME280;27693;50.506;30.832;2023-02-11T04:43:26;100868.73;;;-0.31;76.60
42003;BME280;27693;50.506;30.832;2023-02-11T04:44:28;100871.23;;;-0.33;76.71
42003;BME280;27693;50.506;30.832;2023-02-11T04:45:31;100869.39;;;-0.42;76.67
42003;BME280;27693;50.506;30.832;2023-02-11T04:46:33;100859.97;;;-0.44;76.87
42003;BME280;27693;50.506;30.832;2023-02-11T04:47:36;100866.92;;;-0.37;77.21
42003;BME280;27693;50.506;30.832;2023-02-11T04:48:38;100858.41;;;-0.36;77.11
42003;BME280;27693;50.506;30.832;2023-02-11T04:49:41;100855.13;;;-0.29;77.40
42003;BME280;27693;50.506;30.832;2023-02-11T04:50:43;100855.99;;;-0.27;77.08
42003;BME280;27693;50.506;30.832;2023-02-11T04:51:45;100864.46;;;-0.31;76.92
42003;BME280;27693;50.506;30.832;2023-02-11T04:52:49;100860.28;;;-0.26;77.27
42003;BME280;27693;50.506;30.832;2023-02-11T04:53:52;100852.67;;;-0.23;76.91
42003;BME280;27693;50.506;30.832;2023-02-11T04:54:54;100862.17;;;-0.15;77.09
42003;BME280;27693;50.506;30.832;2023-02-11T04:55:57;100853.50;;;-0.24;76.72
42003;BME280;27693;50.506;30.832;2023-02-11T04:56:59;100852.69;;;-0.21;77.29
42003;BME280;27693;50.506;30.832;2023-02-11T04:58:02;100846.02;;;-0.11;78.05
42003;BME280;27693;50.506;30.832;2023-02-11T04:59:05;100850.31;;;-0.10;77.89
42003;BME280;27693;50.506;30.832;2023-02-11T05:00:09;100848.58;;;-0.11;77.31
42003;BME280;27693;50.506;30.832;2023-02-11T05:01:14;100845.25;;;-0.07;77.49
42003;BME280;27693;50.506;30.832;2023-02-11T05:02:17;100848.67;;;-0.05;77.20
42003;BME280;27693;50.506;30.832;2023-02-11T05:03:20;100845.34;;;-0.01;77.12
42003;BME280;27693;50.506;30.832;2023-02-11T05:04:22;100840.35;;;0.08;77.47
42003;BME280;27693;50.506;30.832;2023-02-11T05:05:24;100845.44;;;0.05;76.82
42003;BME280;27693;50.506;30.832;2023-02-11T05:06:27;100842.88;;;0.05;77.04
42003;BME280;27693;50.506;30.832;2023-02-11T05:07:29;100838.41;;;-0.08;76.81
42003;BME280;27693;50.506;30.832;2023-02-11T05:08:32;100843.34;;;-0.21;76.80
42003;BME280;27693;50.506;30.832;2023-02-11T05:09:34;100839.98;;;-0.17;77.77
42003;BME280;27693;50.506;30.832;2023-02-11T05:10:37;100838.35;;;-0.11;78.10
42003;BME280;27693;50.506;30.832;2023-02-11T05:11:40;100834.20;;;-0.05;78.87
42003;BME280;27693;50.506;30.832;2023-02-11T05:12:42;100839.27;;;-0.08;77.83
42003;BME280;27693;50.506;30.832;2023-02-11T05:13:45;100839.27;;;-0.08;77.83
42003;BME280;27693;50.506;30.832;2023-02-11T05:14:48;100842.64;;;-0.10;77.54
42003;BME280;27693;50.506;30.832;2023-02-11T05:15:50;100834.48;;;-0.40;77.43
42003;BME280;27693;50.506;30.832;2023-02-11T05:16:53;100841.76;;;-0.63;78.04
42003;BME280;27693;50.506;30.832;2023-02-11T05:17:55;100833.19;;;-0.65;78.66
42003;BME280;27693;50.506;30.832;2023-02-11T05:19:11;100828.25;;;-0.56;79.03
42003;BME280;27693;50.506;30.832;2023-02-11T05:20:15;100839.58;;;-0.41;79.91
42003;BME280;27693;50.506;30.832;2023-02-11T05:21:18;100838.79;;;-0.37;79.33
42003;BME280;27693;50.506;30.832;2023-02-11T05:22:21;100839.60;;;-0.40;79.01
42003;BME280;27693;50.506;30.832;2023-02-11T05:23:25;100830.32;;;-0.33;79.32
42003;BME280;27693;50.506;30.832;2023-02-11T05:24:31;100841.45;;;-0.31;79.15
42003;BME280;27693;50.506;30.832;2023-02-11T05:25:33;100834.67;;;-0.29;79.02
42003;BME280;27693;50.506;30.832;2023-02-11T05:26:35;100833.59;;;-0.42;78.34
42003;BME280;27693;50.506;30.832;2023-02-11T05:27:38;100841.28;;;-0.40;78.68
42003;BME280;27693;50.506;30.832;2023-02-11T05:28:41;100835.41;;;-0.36;78.80
42003;BME280;27693;50.506;30.832;2023-02-11T05:29:43;100835.34;;;-0.39;78.63
42003;BME280;27693;50.506;30.832;2023-02-11T05:30:45;100832.78;;;-0.39;79.17
42003;BME280;27693;50.506;30.832;2023-02-11T05:31:48;100832.84;;;-0.36;79.66
42003;BME280;27693;50.506;30.832;2023-02-11T05:32:50;100831.10;;;-0.39;79.78
42003;BME280;27693;50.506;30.832;2023-02-11T05:33:53;100830.02;;;-0.52;79.59
42003;BME280;27693;50.506;30.832;2023-02-11T05:34:55;100836.16;;;-0.40;79.69
42003;BME280;27693;50.506;30.832;2023-02-11T05:37:10;100834.50;;;-0.38;79.26
42003;BME280;27693;50.506;30.832;2023-02-11T05:38:13;100837.58;;;-0.58;79.28
42003;BME280;27693;50.506;30.832;2023-02-11T05:39:15;100844.34;;;-0.60;79.63
42003;BME280;27693;50.506;30.832;2023-02-11T05:40:17;100835.11;;;-0.53;80.34
42003;BME280;27693;50.506;30.832;2023-02-11T05:41:20;100840.31;;;-0.49;79.89
42003;BME280;27693;50.506;30.832;2023-02-11T05:42:22;100829.29;;;-0.44;79.95
42003;BME280;27693;50.506;30.832;2023-02-11T05:43:25;100829.08;;;-0.57;79.58
42003;BME280;27693;50.506;30.832;2023-02-11T05:44:27;100823.09;;;-0.57;80.06
42003;BME280;27693;50.506;30.832;2023-02-11T05:45:29;100829.91;;;-0.58;79.87
42003;BME280;27693;50.506;30.832;2023-02-11T05:46:32;100827.44;;;-0.53;79.72
42003;BME280;27693;50.506;30.832;2023-02-11T05:47:34;100832.58;;;-0.52;79.52
42003;BME280;27693;50.506;30.832;2023-02-11T05:48:36;100832.50;;;-0.55;79.43
42003;BME280;27693;50.506;30.832;2023-02-11T05:49:38;100831.47;;;-0.66;79.85
42003;BME280;27693;50.506;30.832;2023-02-11T05:50:42;100828.69;;;-0.78;79.95
42003;BME280;27693;50.506;30.832;2023-02-11T05:51:45;100832.95;;;-0.79;80.11
42003;BME280;27693;50.506;30.832;2023-02-11T05:52:48;100827.95;;;-0.73;80.37
42003;BME280;27693;50.506;30.832;2023-02-11T05:53:51;100830.45;;;-0.74;80.17
42003;BME280;27693;50.506;30.832;2023-02-11T05:54:54;100833.80;;;-0.78;80.27
42003;BME280;27693;50.506;30.832;2023-02-11T05:55:56;100836.23;;;-0.86;80.46
42003;BME280;27693;50.506;30.832;2023-02-11T05:56:59;100831.02;;;-0.91;80.58
42003;BME280;27693;50.506;30.832;2023-02-11T05:58:01;100837.14;;;-0.83;80.99
42003;BME280;27693;50.506;30.832;2023-02-11T05:59:03;100834.02;;;-0.66;81.29
42003;BME280;27693;50.506;30.832;2023-02-11T06:00:08;100824.00;;;-0.54;81.15
42003;BME280;27693;50.506;30.832;2023-02-11T06:01:15;100827.36;;;-0.58;80.52
42003;BME280;27693;50.506;30.832;2023-02-11T06:02:17;100816.15;;;-0.65;80.56
42003;BME280;27693;50.506;30.832;2023-02-11T06:03:19;100816.15;;;-0.65;80.56
42003;BME280;27693;50.506;30.832;2023-02-11T06:04:22;100816.34;;;-0.54;80.66
42003;BME280;27693;50.506;30.832;2023-02-11T06:05:24;100810.36;;;-0.56;80.94
42003;BME280;27693;50.506;30.832;2023-02-11T06:06:27;100817.13;;;-0.58;81.04
42003;BME280;27693;50.506;30.832;2023-02-11T06:07:29;100811.13;;;-0.60;81.35
42003;BME280;27693;50.506;30.832;2023-02-11T06:08:32;100812.00;;;-0.59;81.46
42003;BME280;27693;50.506;30.832;2023-02-11T06:09:38;100811.91;;;-0.64;81.25
42003;BME280;27693;50.506;30.832;2023-02-11T06:10:45;100801.67;;;-0.66;81.33
42003;BME280;27693;50.506;30.832;2023-02-11T06:11:48;100796.66;;;-0.59;81.50
42003;BME280;27693;50.506;30.832;2023-02-11T06:12:50;100802.06;;;-0.42;81.58